sensor_id;sensor_type;location;lat;lon;timestamp;P1;durP1;ratioP1;P2;durP2;ratioP2
16514;SDS011;8370;52.556;7.970;2022-12-18T00:01:52;25.73;;;10.10;;
16514;SDS011;8370;52.556;7.970;2022-12-18T00:04:21;27.40;;;10.83;;
16514;SDS011;8370;52.556;7.970;2022-12-18T00:06:49;32.23;;;11.00;;
16514;SDS011;8370;52.556;7.970;2022-12-18T00:09:14;34.03;;;11.33;;
16514;SDS011;8370;52.556;7.970;2022-12-18T00:11:40;40.30;;;11.90;;
16514;SDS011;8370;52.556;7.970;2022-12-18T00:14:06;22.03;;;9.73;;
16514;SDS011;8370;52.556;7.970;2022-12-18T00:16:32;26.00;;;11.33;;
16514;SDS011;8370;52.556;7.970;2022-12-18T00:19:00;28.17;;;13.57;;
16514;SDS011;8370;52.556;7.970;2022-12-18T00:21:26;25.73;;;10.73;;
16514;SDS011;8370;52.556;7.970;2022-12-18T00:23:53;28.97;;;11.90;;
16514;SDS011;8370;52.556;7.970;2022-12-18T00:26:19;27.20;;;11.10;;
16514;SDS011;8370;52.556;7.970;2022-12-18T00:28:47;35.73;;;12.77;;
16514;SDS011;8370;52.556;7.970;2022-12-18T00:31:14;26.17;;;13.10;;
16514;SDS011;8370;52.556;7.970;2022-12-18T00:33:41;35.80;;;10.83;;
16514;SDS011;8370;52.556;7.970;2022-12-18T00:36:11;25.90;;;10.13;;
16514;SDS011;8370;52.556;7.970;2022-12-18T00:38:38;32.37;;;11.60;;
16514;SDS011;8370;52.556;7.970;2022-12-18T00:41:05;21.20;;;8.90;;
16514;SDS011;8370;52.556;7.970;2022-12-18T00:43:31;33.57;;;12.33;;
16514;SDS011;8370;52.556;7.970;2022-12-18T00:45:56;32.67;;;11.97;;
16514;SDS011;8370;52.556;7.970;2022-12-18T00:48:22;33.53;;;11.80;;
16514;SDS011;8370;52.556;7.970;2022-12-18T00:50:48;24.23;;;9.30;;
16514;SDS011;8370;52.556;7.970;2022-12-18T00:53:15;29.63;;;11.53;;
16514;SDS011;8370;52.556;7.970;2022-12-18T00:55:40;24.60;;;10.40;;
16514;SDS011;8370;52.556;7.970;2022-12-18T00:58:07;24.40;;;11.10;;
16514;SDS011;8370;52.556;7.970;2022-12-18T01:00:33;23.33;;;8.90;;
16514;SDS011;8370;52.556;7.970;2022-12-18T01:02:59;24.50;;;8.70;;
16514;SDS011;8370;52.556;7.970;2022-12-18T01:05:24;24.73;;;10.53;;
16514;SDS011;8370;52.556;7.970;2022-12-18T01:07:50;31.40;;;10.40;;
16514;SDS011;8370;52.556;7.970;2022-12-18T01:10:15;32.60;;;11.53;;
16514;SDS011;8370;52.556;7.970;2022-12-18T01:12:41;22.47;;;8.70;;
16514;SDS011;8370;52.556;7.970;2022-12-18T01:15:07;28.47;;;11.47;;
16514;SDS011;8370;52.556;7.970;2022-12-18T01:17:33;31.27;;;10.50;;
16514;SDS011;8370;52.556;7.970;2022-12-18T01:19:59;28.50;;;11.20;;
16514;SDS011;8370;52.556;7.970;2022-12-18T01:22:24;25.27;;;10.87;;
16514;SDS011;8370;52.556;7.970;2022-12-18T01:24:50;29.67;;;10.40;;
16514;SDS011;8370;52.556;7.970;2022-12-18T01:27:15;21.17;;;8.83;;
16514;SDS011;8370;52.556;7.970;2022-12-18T01:29:41;39.53;;;11.50;;
16514;SDS011;8370;52.556;7.970;2022-12-18T01:32:07;26.43;;;10.77;;
16514;SDS011;8370;52.556;7.970;2022-12-18T01:34:33;25.63;;;9.63;;
16514;SDS011;8370;52.556;7.970;2022-12-18T01:37:01;22.07;;;10.70;;
16514;SDS011;8370;52.556;7.970;2022-12-18T01:39:30;31.77;;;10.53;;
16514;SDS011;8370;52.556;7.970;2022-12-18T01:41:57;31.37;;;11.00;;
16514;SDS011;8370;52.556;7.970;2022-12-18T01:44:47;21.27;;;9.33;;
16514;SDS011;8370;52.556;7.970;2022-12-18T01:47:20;34.90;;;11.57;;
16514;SDS011;8370;52.556;7.970;2022-12-18T01:49:49;19.43;;;11.13;;
16514;SDS011;8370;52.556;7.970;2022-12-18T01:52:15;18.63;;;9.40;;
16514;SDS011;8370;52.556;7.970;2022-12-18T01:54:41;28.97;;;9.87;;
16514;SDS011;8370;52.556;7.970;2022-12-18T01:57:07;26.07;;;11.10;;
16514;SDS011;8370;52.556;7.970;2022-12-18T01:59:33;26.53;;;10.73;;
16514;SDS011;8370;52.556;7.970;2022-12-18T02:02:00;28.47;;;11.80;;
16514;SDS011;8370;52.556;7.970;2022-12-18T02:04:27;22.97;;;10.33;;
16514;SDS011;8370;52.556;7.970;2022-12-18T02:07:05;30.33;;;8.27;;
16514;SDS011;8370;52.556;7.970;2022-12-18T02:09:44;21.40;;;8.60;;
16514;SDS011;8370;52.556;7.970;2022-12-18T02:12:19;26.07;;;9.73;;
16514;SDS011;8370;52.556;7.970;2022-12-18T02:14:55;25.80;;;10.97;;
16514;SDS011;8370;52.556;7.970;2022-12-18T02:17:37;24.33;;;8.80;;
16514;SDS011;8370;52.556;7.970;2022-12-18T02:20:16;22.40;;;11.30;;
16514;SDS011;8370;52.556;7.970;2022-12-18T02:28:46;21.17;;;9.13;;
16514;SDS011;8370;52.556;7.970;2022-12-18T02:31:18;23.13;;;7.93;;
16514;SDS011;8370;52.556;7.970;2022-12-18T02:33:52;19.60;;;9.57;;
16514;SDS011;8370;52.556;7.970;2022-12-18T02:36:21;22.07;;;9.17;;
16514;SDS011;8370;52.556;7.970;2022-12-18T02:38:48;26.03;;;9.90;;
16514;SDS011;8370;52.556;7.970;2022-12-18T02:41:15;22.17;;;8.93;;
16514;SDS011;8370;52.556;7.970;2022-12-18T02:43:46;27.73;;;11.17;;
16514;SDS011;8370;52.556;7.970;2022-12-18T02:46:28;18.20;;;9.20;;
16514;SDS011;8370;52.556;7.970;2022-12-18T02:51:42;25.53;;;8.63;;
16514;SDS011;8370;52.556;7.970;2022-12-18T02:54:27;25.20;;;10.40;;
16514;SDS011;8370;52.556;7.970;2022-12-18T02:56:56;19.63;;;7.53;;
16514;SDS011;8370;52.556;7.970;2022-12-18T03:00:02;24.67;;;8.70;;
16514;SDS011;8370;52.556;7.970;2022-12-18T03:07:52;23.10;;;10.27;;
16514;SDS011;8370;52.556;7.970;2022-12-18T03:10:29;22.80;;;8.40;;
16514;SDS011;8370;52.556;7.970;2022-12-18T03:13:04;17.33;;;8.23;;
16514;SDS011;8370;52.556;7.970;2022-12-18T03:15:36;13.73;;;7.27;;
16514;SDS011;8370;52.556;7.970;2022-12-18T03:18:11;24.40;;;8.50;;
16514;SDS011;8370;52.556;7.970;2022-12-18T03:20:46;17.63;;;8.87;;
16514;SDS011;8370;52.556;7.970;2022-12-18T03:23:15;23.40;;;9.20;;
16514;SDS011;8370;52.556;7.970;2022-12-18T03:25:44;18.27;;;7.50;;
16514;SDS011;8370;52.556;7.970;2022-12-18T03:28:15;21.80;;;8.93;;
16514;SDS011;8370;52.556;7.970;2022-12-18T03:30:44;19.23;;;6.63;;
16514;SDS011;8370;52.556;7.970;2022-12-18T03:33:24;14.50;;;7.10;;
16514;SDS011;8370;52.556;7.970;2022-12-18T03:35:53;20.97;;;8.80;;
16514;SDS011;8370;52.556;7.970;2022-12-18T03:38:19;14.20;;;7.47;;
16514;SDS011;8370;52.556;7.970;2022-12-18T03:43:56;17.70;;;7.67;;
16514;SDS011;8370;52.556;7.970;2022-12-18T03:46:38;14.37;;;7.03;;
16514;SDS011;8370;52.556;7.970;2022-12-18T03:49:19;19.00;;;6.53;;
16514;SDS011;8370;52.556;7.970;2022-12-18T03:52:01;14.30;;;7.93;;
16514;SDS011;8370;52.556;7.970;2022-12-18T03:54:34;9.97;;;6.50;;
16514;SDS011;8370;52.556;7.970;2022-12-18T03:57:04;12.03;;;5.73;;
16514;SDS011;8370;52.556;7.970;2022-12-18T03:59:43;9.73;;;5.00;;
16514;SDS011;8370;52.556;7.970;2022-12-18T04:02:12;16.23;;;8.07;;
16514;SDS011;8370;52.556;7.970;2022-12-18T04:04:40;18.40;;;6.67;;
16514;SDS011;8370;52.556;7.970;2022-12-18T04:07:07;13.40;;;6.10;;
16514;SDS011;8370;52.556;7.970;2022-12-18T04:09:34;11.67;;;6.53;;
16514;SDS011;8370;52.556;7.970;2022-12-18T04:12:01;17.33;;;6.90;;
16514;SDS011;8370;52.556;7.970;2022-12-18T04:14:27;17.93;;;5.97;;
16514;SDS011;8370;52.556;7.970;2022-12-18T04:16:52;14.73;;;5.20;;
16514;SDS011;8370;52.556;7.970;2022-12-18T04:19:18;6.83;;;3.83;;
16514;SDS011;8370;52.556;7.970;2022-12-18T04:21:43;15.57;;;6.17;;
16514;SDS011;8370;52.556;7.970;2022-12-18T04:24:09;11.03;;;4.80;;
16514;SDS011;8370;52.556;7.970;2022-12-18T04:26:34;13.17;;;6.80;;
16514;SDS011;8370;52.556;7.970;2022-12-18T04:29:00;11.40;;;6.73;;
16514;SDS011;8370;52.556;7.970;2022-12-18T04:31:25;11.43;;;6.60;;
16514;SDS011;8370;52.556;7.970;2022-12-18T04:33:51;18.33;;;6.43;;
16514;SDS011;8370;52.556;7.970;2022-12-18T04:36:17;11.67;;;6.33;;
16514;SDS011;8370;52.556;7.970;2022-12-18T04:38:42;13.93;;;7.37;;
16514;SDS011;8370;52.556;7.970;2022-12-18T04:41:08;10.87;;;6.07;;
16514;SDS011;8370;52.556;7.970;2022-12-18T04:43:33;10.83;;;5.47;;
16514;SDS011;8370;52.556;7.970;2022-12-18T04:46:03;10.63;;;5.80;;
16514;SDS011;8370;52.556;7.970;2022-12-18T04:48:30;18.57;;;5.67;;
16514;SDS011;8370;52.556;7.970;2022-12-18T04:50:55;16.90;;;5.43;;
16514;SDS011;8370;52.556;7.970;2022-12-18T04:53:21;12.87;;;6.07;;
16514;SDS011;8370;52.556;7.970;2022-12-18T04:55:46;12.07;;;5.53;;
16514;SDS011;8370;52.556;7.970;2022-12-18T04:58:12;7.17;;;5.67;;
16514;SDS011;8370;52.556;7.970;2022-12-18T05:00:37;16.13;;;6.30;;
16514;SDS011;8370;52.556;7.970;2022-12-18T05:03:03;17.47;;;6.40;;
16514;SDS011;8370;52.556;7.970;2022-12-18T05:05:28;7.47;;;4.90;;
16514;SDS011;8370;52.556;7.970;2022-12-18T05:07:54;17.27;;;5.67;;
16514;SDS011;8370;52.556;7.970;2022-12-18T05:10:20;13.50;;;5.43;;
16514;SDS011;8370;52.556;7.970;2022-12-18T05:12:45;8.07;;;4.67;;
16514;SDS011;8370;52.556;7.970;2022-12-18T05:15:23;10.43;;;5.57;;
16514;SDS011;8370;52.556;7.970;2022-12-18T05:17:51;12.37;;;6.97;;
16514;SDS011;8370;52.556;7.970;2022-12-18T05:20:16;12.63;;;6.00;;
16514;SDS011;8370;52.556;7.970;2022-12-18T05:22:43;9.83;;;6.37;;
16514;SDS011;8370;52.556;7.970;2022-12-18T05:25:08;11.87;;;5.47;;
16514;SDS011;8370;52.556;7.970;2022-12-18T05:27:34;10.60;;;4.77;;
16514;SDS011;8370;52.556;7.970;2022-12-18T05:29:59;16.03;;;5.33;;
16514;SDS011;8370;52.556;7.970;2022-12-18T05:32:25;12.10;;;5.70;;
16514;SDS011;8370;52.556;7.970;2022-12-18T05:34:50;11.47;;;6.07;;
16514;SDS011;8370;52.556;7.970;2022-12-18T05:37:16;16.67;;;5.23;;
16514;SDS011;8370;52.556;7.970;2022-12-18T05:39:42;12.47;;;6.00;;
16514;SDS011;8370;52.556;7.970;2022-12-18T05:42:08;9.27;;;4.83;;
16514;SDS011;8370;52.556;7.970;2022-12-18T05:44:33;9.40;;;4.90;;
16514;SDS011;8370;52.556;7.970;2022-12-18T05:46:59;9.07;;;4.33;;
16514;SDS011;8370;52.556;7.970;2022-12-18T05:49:24;18.03;;;6.17;;
16514;SDS011;8370;52.556;7.970;2022-12-18T05:51:50;13.30;;;6.80;;
16514;SDS011;8370;52.556;7.970;2022-12-18T05:54:15;9.23;;;5.50;;
16514;SDS011;8370;52.556;7.970;2022-12-18T05:56:41;10.33;;;4.70;;
16514;SDS011;8370;52.556;7.970;2022-12-18T05:59:06;10.57;;;5.80;;
16514;SDS011;8370;52.556;7.970;2022-12-18T06:01:32;7.47;;;4.57;;
16514;SDS011;8370;52.556;7.970;2022-12-18T06:03:58;11.90;;;5.93;;
16514;SDS011;8370;52.556;7.970;2022-12-18T06:06:24;18.87;;;4.77;;
16514;SDS011;8370;52.556;7.970;2022-12-18T06:08:51;11.73;;;5.47;;
16514;SDS011;8370;52.556;7.970;2022-12-18T06:11:19;11.03;;;5.23;;
16514;SDS011;8370;52.556;7.970;2022-12-18T06:13:49;9.50;;;4.37;;
16514;SDS011;8370;52.556;7.970;2022-12-18T06:16:15;10.00;;;4.50;;
16514;SDS011;8370;52.556;7.970;2022-12-18T06:18:41;14.03;;;4.53;;
16514;SDS011;8370;52.556;7.970;2022-12-18T06:21:06;12.13;;;5.43;;
16514;SDS011;8370;52.556;7.970;2022-12-18T06:23:32;11.43;;;5.07;;
16514;SDS011;8370;52.556;7.970;2022-12-18T06:25:58;11.27;;;5.00;;
16514;SDS011;8370;52.556;7.970;2022-12-18T06:28:23;9.03;;;4.03;;
16514;SDS011;8370;52.556;7.970;2022-12-18T06:30:50;7.87;;;4.17;;
16514;SDS011;8370;52.556;7.970;2022-12-18T06:33:16;13.77;;;4.63;;
16514;SDS011;8370;52.556;7.970;2022-12-18T06:35:42;10.80;;;4.70;;
16514;SDS011;8370;52.556;7.970;2022-12-18T06:38:07;12.53;;;5.63;;
16514;SDS011;8370;52.556;7.970;2022-12-18T06:40:33;10.97;;;4.97;;
16514;SDS011;8370;52.556;7.970;2022-12-18T06:42:58;11.63;;;5.00;;
16514;SDS011;8370;52.556;7.970;2022-12-18T06:45:24;10.00;;;4.27;;
16514;SDS011;8370;52.556;7.970;2022-12-18T06:47:50;8.43;;;5.00;;
16514;SDS011;8370;52.556;7.970;2022-12-18T06:50:16;9.90;;;4.07;;
16514;SDS011;8370;52.556;7.970;2022-12-18T06:52:41;10.13;;;4.70;;
16514;SDS011;8370;52.556;7.970;2022-12-18T06:55:08;11.63;;;5.77;;
16514;SDS011;8370;52.556;7.970;2022-12-18T06:57:35;13.33;;;4.27;;
16514;SDS011;8370;52.556;7.970;2022-12-18T07:00:00;11.27;;;4.57;;
16514;SDS011;8370;52.556;7.970;2022-12-18T07:02:27;9.27;;;5.23;;
16514;SDS011;8370;52.556;7.970;2022-12-18T07:04:53;12.50;;;5.50;;
16514;SDS011;8370;52.556;7.970;2022-12-18T07:07:18;18.73;;;4.93;;
16514;SDS011;8370;52.556;7.970;2022-12-18T07:09:44;13.47;;;6.73;;
16514;SDS011;8370;52.556;7.970;2022-12-18T07:12:09;10.53;;;4.40;;
16514;SDS011;8370;52.556;7.970;2022-12-18T07:14:35;14.03;;;6.23;;
16514;SDS011;8370;52.556;7.970;2022-12-18T07:17:00;10.87;;;4.97;;
16514;SDS011;8370;52.556;7.970;2022-12-18T07:19:26;14.43;;;5.77;;
16514;SDS011;8370;52.556;7.970;2022-12-18T07:21:51;6.30;;;4.10;;
16514;SDS011;8370;52.556;7.970;2022-12-18T07:24:17;11.20;;;4.60;;
16514;SDS011;8370;52.556;7.970;2022-12-18T07:26:45;9.43;;;4.80;;
16514;SDS011;8370;52.556;7.970;2022-12-18T07:29:10;7.03;;;4.60;;
16514;SDS011;8370;52.556;7.970;2022-12-18T07:31:36;16.17;;;7.27;;
16514;SDS011;8370;52.556;7.970;2022-12-18T07:34:01;9.77;;;5.53;;
16514;SDS011;8370;52.556;7.970;2022-12-18T07:36:27;19.27;;;8.40;;
16514;SDS011;8370;52.556;7.970;2022-12-18T07:38:53;15.93;;;7.00;;
16514;SDS011;8370;52.556;7.970;2022-12-18T07:41:18;15.53;;;6.37;;
16514;SDS011;8370;52.556;7.970;2022-12-18T07:43:44;23.33;;;10.33;;
16514;SDS011;8370;52.556;7.970;2022-12-18T07:46:10;19.20;;;4.73;;
16514;SDS011;8370;52.556;7.970;2022-12-18T07:48:38;13.27;;;5.47;;
16514;SDS011;8370;52.556;7.970;2022-12-18T07:51:08;8.17;;;5.40;;
16514;SDS011;8370;52.556;7.970;2022-12-18T07:53:34;12.17;;;5.40;;
16514;SDS011;8370;52.556;7.970;2022-12-18T07:56:10;11.43;;;5.40;;
16514;SDS011;8370;52.556;7.970;2022-12-18T07:58:37;11.80;;;6.13;;
16514;SDS011;8370;52.556;7.970;2022-12-18T08:01:12;16.70;;;7.60;;
16514;SDS011;8370;52.556;7.970;2022-12-18T08:03:38;15.87;;;8.00;;
16514;SDS011;8370;52.556;7.970;2022-12-18T08:06:05;19.13;;;7.17;;
16514;SDS011;8370;52.556;7.970;2022-12-18T08:08:33;21.20;;;7.87;;
16514;SDS011;8370;52.556;7.970;2022-12-18T08:10:59;14.97;;;6.63;;
16514;SDS011;8370;52.556;7.970;2022-12-18T08:13:25;16.57;;;7.43;;
16514;SDS011;8370;52.556;7.970;2022-12-18T08:15:55;33.93;;;13.63;;
16514;SDS011;8370;52.556;7.970;2022-12-18T08:18:25;44.73;;;16.77;;
16514;SDS011;8370;52.556;7.970;2022-12-18T08:20:50;44.60;;;14.90;;
16514;SDS011;8370;52.556;7.970;2022-12-18T08:23:16;33.13;;;13.97;;
16514;SDS011;8370;52.556;7.970;2022-12-18T08:25:42;37.90;;;14.10;;
16514;SDS011;8370;52.556;7.970;2022-12-18T08:28:07;33.33;;;14.13;;
16514;SDS011;8370;52.556;7.970;2022-12-18T08:30:33;27.53;;;11.37;;
16514;SDS011;8370;52.556;7.970;2022-12-18T08:32:58;18.37;;;10.07;;
16514;SDS011;8370;52.556;7.970;2022-12-18T08:35:24;15.60;;;7.93;;
16514;SDS011;8370;52.556;7.970;2022-12-18T08:37:49;27.27;;;11.20;;
16514;SDS011;8370;52.556;7.970;2022-12-18T08:40:15;18.53;;;7.33;;
16514;SDS011;8370;52.556;7.970;2022-12-18T08:42:40;13.67;;;5.57;;
16514;SDS011;8370;52.556;7.970;2022-12-18T08:45:24;13.23;;;6.70;;
16514;SDS011;8370;52.556;7.970;2022-12-18T08:47:51;14.93;;;7.10;;
16514;SDS011;8370;52.556;7.970;2022-12-18T08:50:16;18.03;;;8.03;;
16514;SDS011;8370;52.556;7.970;2022-12-18T08:52:42;8.63;;;4.70;;
16514;SDS011;8370;52.556;7.970;2022-12-18T08:55:08;10.60;;;5.63;;
16514;SDS011;8370;52.556;7.970;2022-12-18T08:57:34;20.70;;;7.00;;
16514;SDS011;8370;52.556;7.970;2022-12-18T09:00:00;17.30;;;5.50;;
16514;SDS011;8370;52.556;7.970;2022-12-18T09:02:25;8.13;;;4.70;;
16514;SDS011;8370;52.556;7.970;2022-12-18T09:04:51;20.60;;;9.97;;
16514;SDS011;8370;52.556;7.970;2022-12-18T09:07:16;13.20;;;6.60;;
16514;SDS011;8370;52.556;7.970;2022-12-18T09:09:42;14.73;;;8.00;;
16514;SDS011;8370;52.556;7.970;2022-12-18T09:12:07;8.97;;;5.33;;
16514;SDS011;8370;52.556;7.970;2022-12-18T09:14:33;13.30;;;6.30;;
16514;SDS011;8370;52.556;7.970;2022-12-18T09:16:59;17.03;;;7.27;;
16514;SDS011;8370;52.556;7.970;2022-12-18T09:19:24;10.23;;;5.43;;
16514;SDS011;8370;52.556;7.970;2022-12-18T09:21:50;6.47;;;5.33;;
16514;SDS011;8370;52.556;7.970;2022-12-18T09:24:16;9.90;;;5.37;;
16514;SDS011;8370;52.556;7.970;2022-12-18T09:26:42;22.57;;;7.00;;
16514;SDS011;8370;52.556;7.970;2022-12-18T09:29:08;12.07;;;5.70;;
16514;SDS011;8370;52.556;7.970;2022-12-18T09:31:34;12.47;;;6.33;;
16514;SDS011;8370;52.556;7.970;2022-12-18T09:34:01;10.43;;;4.57;;
16514;SDS011;8370;52.556;7.970;2022-12-18T09:36:26;21.03;;;7.50;;
16514;SDS011;8370;52.556;7.970;2022-12-18T09:38:52;13.90;;;6.13;;
16514;SDS011;8370;52.556;7.970;2022-12-18T09:46:36;13.90;;;6.77;;
16514;SDS011;8370;52.556;7.970;2022-12-18T09:49:15;13.03;;;5.63;;
16514;SDS011;8370;52.556;7.970;2022-12-18T09:51:47;11.60;;;6.30;;
16514;SDS011;8370;52.556;7.970;2022-12-18T09:54:23;10.27;;;6.13;;
16514;SDS011;8370;52.556;7.970;2022-12-18T09:56:55;16.23;;;6.37;;
16514;SDS011;8370;52.556;7.970;2022-12-18T09:59:25;15.67;;;6.93;;
16514;SDS011;8370;52.556;7.970;2022-12-18T10:01:56;12.17;;;7.17;;
16514;SDS011;8370;52.556;7.970;2022-12-18T10:04:21;14.73;;;6.47;;
16514;SDS011;8370;52.556;7.970;2022-12-18T10:06:52;15.17;;;6.60;;
16514;SDS011;8370;52.556;7.970;2022-12-18T10:09:27;14.23;;;5.97;;
16514;SDS011;8370;52.556;7.970;2022-12-18T10:12:08;15.07;;;6.63;;
16514;SDS011;8370;52.556;7.970;2022-12-18T10:14:47;14.30;;;6.43;;
16514;SDS011;8370;52.556;7.970;2022-12-18T10:20:33;12.07;;;5.93;;
16514;SDS011;8370;52.556;7.970;2022-12-18T10:23:15;16.10;;;6.57;;
16514;SDS011;8370;52.556;7.970;2022-12-18T10:28:30;14.70;;;6.67;;
16514;SDS011;8370;52.556;7.970;2022-12-18T10:30:57;11.00;;;5.10;;
16514;SDS011;8370;52.556;7.970;2022-12-18T10:33:24;14.73;;;6.80;;
16514;SDS011;8370;52.556;7.970;2022-12-18T10:35:53;16.90;;;6.53;;
16514;SDS011;8370;52.556;7.970;2022-12-18T10:41:05;14.63;;;5.93;;
16514;SDS011;8370;52.556;7.970;2022-12-18T10:44:11;14.10;;;6.10;;
16514;SDS011;8370;52.556;7.970;2022-12-18T10:46:42;13.07;;;5.03;;
16514;SDS011;8370;52.556;7.970;2022-12-18T10:49:18;11.77;;;5.40;;
16514;SDS011;8370;52.556;7.970;2022-12-18T10:51:46;13.60;;;5.77;;
16514;SDS011;8370;52.556;7.970;2022-12-18T10:54:16;11.87;;;5.53;;
16514;SDS011;8370;52.556;7.970;2022-12-18T10:56:42;10.13;;;4.97;;
16514;SDS011;8370;52.556;7.970;2022-12-18T10:59:09;10.50;;;5.53;;
16514;SDS011;8370;52.556;7.970;2022-12-18T11:01:47;11.80;;;5.10;;
16514;SDS011;8370;52.556;7.970;2022-12-18T11:04:22;12.23;;;5.70;;
16514;SDS011;8370;52.556;7.970;2022-12-18T11:07:05;13.30;;;6.33;;
16514;SDS011;8370;52.556;7.970;2022-12-18T11:11:59;11.00;;;5.53;;
16514;SDS011;8370;52.556;7.970;2022-12-18T11:14:31;9.33;;;5.53;;
16514;SDS011;8370;52.556;7.970;2022-12-18T11:16:59;10.23;;;4.87;;
16514;SDS011;8370;52.556;7.970;2022-12-18T11:19:28;13.27;;;5.27;;
16514;SDS011;8370;52.556;7.970;2022-12-18T11:22:21;10.40;;;5.37;;
16514;SDS011;8370;52.556;7.970;2022-12-18T11:27:37;12.93;;;6.13;;
16514;SDS011;8370;52.556;7.970;2022-12-18T11:32:58;10.93;;;5.47;;
16514;SDS011;8370;52.556;7.970;2022-12-18T11:35:48;12.20;;;5.23;;
16514;SDS011;8370;52.556;7.970;2022-12-18T11:38:22;12.03;;;5.27;;
16514;SDS011;8370;52.556;7.970;2022-12-18T11:40:52;12.70;;;5.73;;
16514;SDS011;8370;52.556;7.970;2022-12-18T11:43:28;9.20;;;4.70;;
16514;SDS011;8370;52.556;7.970;2022-12-18T11:46:23;10.27;;;5.57;;
16514;SDS011;8370;52.556;7.970;2022-12-18T11:49:03;11.10;;;5.30;;
16514;SDS011;8370;52.556;7.970;2022-12-18T11:51:48;15.13;;;5.17;;
16514;SDS011;8370;52.556;7.970;2022-12-18T11:54:23;8.00;;;4.93;;
16514;SDS011;8370;52.556;7.970;2022-12-18T11:56:51;12.87;;;5.53;;
16514;SDS011;8370;52.556;7.970;2022-12-18T12:04:46;9.70;;;5.73;;
16514;SDS011;8370;52.556;7.970;2022-12-18T12:12:52;12.57;;;5.33;;
16514;SDS011;8370;52.556;7.970;2022-12-18T12:18:08;13.73;;;6.13;;
16514;SDS011;8370;52.556;7.970;2022-12-18T12:26:22;11.83;;;5.33;;
16514;SDS011;8370;52.556;7.970;2022-12-18T12:39:36;9.10;;;4.93;;
16514;SDS011;8370;52.556;7.970;2022-12-18T12:42:05;11.63;;;5.50;;
16514;SDS011;8370;52.556;7.970;2022-12-18T12:44:57;11.90;;;4.23;;
16514;SDS011;8370;52.556;7.970;2022-12-18T12:47:27;16.03;;;6.40;;
16514;SDS011;8370;52.556;7.970;2022-12-18T12:50:06;13.67;;;6.03;;
16514;SDS011;8370;52.556;7.970;2022-12-18T12:52:43;12.77;;;5.73;;
16514;SDS011;8370;52.556;7.970;2022-12-18T12:55:33;10.87;;;4.80;;
16514;SDS011;8370;52.556;7.970;2022-12-18T12:58:02;9.70;;;5.53;;
16514;SDS011;8370;52.556;7.970;2022-12-18T13:00:50;10.27;;;4.67;;
16514;SDS011;8370;52.556;7.970;2022-12-18T13:04:06;11.50;;;5.10;;
16514;SDS011;8370;52.556;7.970;2022-12-18T13:09:07;9.53;;;4.63;;
16514;SDS011;8370;52.556;7.970;2022-12-18T13:11:39;9.73;;;4.30;;
16514;SDS011;8370;52.556;7.970;2022-12-18T13:14:30;10.27;;;4.77;;
16514;SDS011;8370;52.556;7.970;2022-12-18T13:19:50;12.03;;;4.70;;
16514;SDS011;8370;52.556;7.970;2022-12-18T13:22:35;8.10;;;4.17;;
16514;SDS011;8370;52.556;7.970;2022-12-18T13:28:11;12.30;;;4.00;;
16514;SDS011;8370;52.556;7.970;2022-12-18T13:30:54;10.63;;;3.60;;
16514;SDS011;8370;52.556;7.970;2022-12-18T13:41:00;8.03;;;3.83;;
16514;SDS011;8370;52.556;7.970;2022-12-18T13:43:30;7.77;;;3.80;;
16514;SDS011;8370;52.556;7.970;2022-12-18T13:46:20;12.00;;;4.40;;
16514;SDS011;8370;52.556;7.970;2022-12-18T13:51:24;7.57;;;4.03;;
16514;SDS011;8370;52.556;7.970;2022-12-18T13:53:51;6.73;;;3.67;;
16514;SDS011;8370;52.556;7.970;2022-12-18T13:56:24;9.27;;;3.77;;
16514;SDS011;8370;52.556;7.970;2022-12-18T14:02:19;7.73;;;3.50;;
16514;SDS011;8370;52.556;7.970;2022-12-18T14:04:48;5.87;;;3.27;;
16514;SDS011;8370;52.556;7.970;2022-12-18T14:07:32;8.63;;;3.60;;
16514;SDS011;8370;52.556;7.970;2022-12-18T14:09:58;6.70;;;3.07;;
16514;SDS011;8370;52.556;7.970;2022-12-18T14:12:29;9.60;;;3.67;;
16514;SDS011;8370;52.556;7.970;2022-12-18T14:18:01;9.03;;;3.40;;
16514;SDS011;8370;52.556;7.970;2022-12-18T14:20:29;8.40;;;3.00;;
16514;SDS011;8370;52.556;7.970;2022-12-18T14:22:57;7.07;;;3.10;;
16514;SDS011;8370;52.556;7.970;2022-12-18T14:25:26;8.27;;;3.50;;
16514;SDS011;8370;52.556;7.970;2022-12-18T14:28:02;8.47;;;3.57;;
16514;SDS011;8370;52.556;7.970;2022-12-18T14:30:40;6.60;;;2.97;;
16514;SDS011;8370;52.556;7.970;2022-12-18T14:33:11;6.40;;;3.43;;
16514;SDS011;8370;52.556;7.970;2022-12-18T14:35:57;4.47;;;2.73;;
16514;SDS011;8370;52.556;7.970;2022-12-18T14:41:05;8.33;;;3.30;;
16514;SDS011;8370;52.556;7.970;2022-12-18T14:43:35;7.77;;;3.17;;
16514;SDS011;8370;52.556;7.970;2022-12-18T14:46:02;4.37;;;2.50;;
16514;SDS011;8370;52.556;7.970;2022-12-18T14:48:39;4.97;;;2.47;;
16514;SDS011;8370;52.556;7.970;2022-12-18T14:54:05;5.60;;;2.60;;
16514;SDS011;8370;52.556;7.970;2022-12-18T14:56:43;6.93;;;3.03;;
16514;SDS011;8370;52.556;7.970;2022-12-18T14:59:13;7.83;;;3.10;;
16514;SDS011;8370;52.556;7.970;2022-12-18T15:01:46;7.43;;;2.77;;
16514;SDS011;8370;52.556;7.970;2022-12-18T15:04:35;7.93;;;2.83;;
16514;SDS011;8370;52.556;7.970;2022-12-18T15:09:40;6.43;;;3.03;;
16514;SDS011;8370;52.556;7.970;2022-12-18T15:12:19;5.70;;;2.67;;
16514;SDS011;8370;52.556;7.970;2022-12-18T15:15:00;6.17;;;3.07;;
16514;SDS011;8370;52.556;7.970;2022-12-18T15:17:26;6.87;;;3.20;;
16514;SDS011;8370;52.556;7.970;2022-12-18T15:19:53;5.90;;;2.77;;
16514;SDS011;8370;52.556;7.970;2022-12-18T15:22:29;3.47;;;2.57;;
16514;SDS011;8370;52.556;7.970;2022-12-18T15:24:58;2.90;;;2.37;;
16514;SDS011;8370;52.556;7.970;2022-12-18T15:27:32;6.97;;;3.43;;
16514;SDS011;8370;52.556;7.970;2022-12-18T15:32:26;5.83;;;3.17;;
16514;SDS011;8370;52.556;7.970;2022-12-18T15:35:01;4.33;;;2.73;;
16514;SDS011;8370;52.556;7.970;2022-12-18T15:37:47;7.77;;;3.30;;
16514;SDS011;8370;52.556;7.970;2022-12-18T15:40:17;4.47;;;2.80;;
16514;SDS011;8370;52.556;7.970;2022-12-18T15:42:47;12.53;;;3.57;;
16514;SDS011;8370;52.556;7.970;2022-12-18T15:45:32;5.07;;;2.73;;
16514;SDS011;8370;52.556;7.970;2022-12-18T15:47:58;5.30;;;3.17;;
16514;SDS011;8370;52.556;7.970;2022-12-18T15:50:24;4.73;;;2.50;;
16514;SDS011;8370;52.556;7.970;2022-12-18T15:52:51;10.00;;;3.57;;
16514;SDS011;8370;52.556;7.970;2022-12-18T15:55:19;8.00;;;3.73;;
16514;SDS011;8370;52.556;7.970;2022-12-18T15:58:05;5.60;;;2.73;;
16514;SDS011;8370;52.556;7.970;2022-12-18T16:00:31;5.77;;;3.27;;
16514;SDS011;8370;52.556;7.970;2022-12-18T16:02:59;7.23;;;3.17;;
16514;SDS011;8370;52.556;7.970;2022-12-18T16:05:25;9.20;;;3.77;;
16514;SDS011;8370;52.556;7.970;2022-12-18T16:07:52;8.33;;;3.83;;
16514;SDS011;8370;52.556;7.970;2022-12-18T16:10:18;7.47;;;2.97;;
16514;SDS011;8370;52.556;7.970;2022-12-18T16:12:44;6.00;;;3.60;;
16514;SDS011;8370;52.556;7.970;2022-12-18T16:15:11;6.23;;;3.07;;
16514;SDS011;8370;52.556;7.970;2022-12-18T16:17:39;4.03;;;2.73;;
16514;SDS011;8370;52.556;7.970;2022-12-18T16:20:06;6.53;;;3.23;;
16514;SDS011;8370;52.556;7.970;2022-12-18T16:22:52;6.33;;;3.00;;
16514;SDS011;8370;52.556;7.970;2022-12-18T16:25:25;3.87;;;2.63;;
16514;SDS011;8370;52.556;7.970;2022-12-18T16:27:52;6.90;;;3.30;;
16514;SDS011;8370;52.556;7.970;2022-12-18T16:30:29;7.03;;;3.40;;
16514;SDS011;8370;52.556;7.970;2022-12-18T16:32:56;6.40;;;3.17;;
16514;SDS011;8370;52.556;7.970;2022-12-18T16:35:23;9.10;;;3.80;;
16514;SDS011;8370;52.556;7.970;2022-12-18T16:37:49;10.47;;;3.67;;
16514;SDS011;8370;52.556;7.970;2022-12-18T16:40:15;4.67;;;2.67;;
16514;SDS011;8370;52.556;7.970;2022-12-18T16:42:42;9.37;;;3.23;;
16514;SDS011;8370;52.556;7.970;2022-12-18T16:45:10;6.77;;;3.47;;
16514;SDS011;8370;52.556;7.970;2022-12-18T16:47:38;8.67;;;4.20;;
16514;SDS011;8370;52.556;7.970;2022-12-18T16:50:04;9.67;;;3.83;;
16514;SDS011;8370;52.556;7.970;2022-12-18T16:52:31;8.07;;;3.70;;